sensor_id;sensor_type;location;lat;lon;timestamp;P1;durP1;ratioP1;P2;durP2;ratioP2
5295;SDS011;2670;42.720;23.336;2023-05-02T00:02:14;8.50;;;5.00;;
5295;SDS011;2670;42.720;23.336;2023-05-02T00:04:40;6.67;;;4.53;;
5295;SDS011;2670;42.720;23.336;2023-05-02T00:07:07;6.10;;;4.80;;
5295;SDS011;2670;42.720;23.336;2023-05-02T00:09:34;7.10;;;4.70;;
5295;SDS011;2670;42.720;23.336;2023-05-02T00:12:02;6.57;;;4.97;;
5295;SDS011;2670;42.720;23.336;2023-05-02T00:14:29;6.90;;;5.20;;
5295;SDS011;2670;42.720;23.336;2023-05-02T00:16:57;6.73;;;5.20;;
5295;SDS011;2670;42.720;23.336;2023-05-02T00:19:23;8.90;;;5.70;;
5295;SDS011;2670;42.720;23.336;2023-05-02T00:21:50;10.17;;;5.50;;
5295;SDS011;2670;42.720;23.336;2023-05-02T00:24:17;6.27;;;5.43;;
5295;SDS011;2670;42.720;23.336;2023-05-02T00:26:44;7.00;;;4.97;;
5295;SDS011;2670;42.720;23.336;2023-05-02T00:29:12;8.53;;;5.20;;
5295;SDS011;2670;42.720;23.336;2023-05-02T00:31:39;8.77;;;5.73;;
5295;SDS011;2670;42.720;23.336;2023-05-02T00:34:06;8.53;;;5.40;;
5295;SDS011;2670;42.720;23.336;2023-05-02T00:36:32;11.50;;;5.30;;
5295;SDS011;2670;42.720;23.336;2023-05-02T00:38:59;7.30;;;5.10;;
5295;SDS011;2670;42.720;23.336;2023-05-02T00:41:26;8.57;;;5.40;;
5295;SDS011;2670;42.720;23.336;2023-05-02T00:43:53;6.97;;;5.40;;
5295;SDS011;2670;42.720;23.336;2023-05-02T00:46:21;7.77;;;4.60;;
5295;SDS011;2670;42.720;23.336;2023-05-02T00:48:47;9.93;;;5.27;;
5295;SDS011;2670;42.720;23.336;2023-05-02T00:51:15;6.70;;;5.10;;
5295;SDS011;2670;42.720;23.336;2023-05-02T00:53:42;6.30;;;4.60;;
5295;SDS011;2670;42.720;23.336;2023-05-02T00:56:09;7.30;;;5.13;;
5295;SDS011;2670;42.720;23.336;2023-05-02T00:58:36;5.97;;;4.87;;
5295;SDS011;2670;42.720;23.336;2023-05-02T01:01:10;6.43;;;5.27;;
5295;SDS011;2670;42.720;23.336;2023-05-02T01:03:53;8.23;;;5.30;;
5295;SDS011;2670;42.720;23.336;2023-05-02T01:06:30;7.00;;;5.10;;
5295;SDS011;2670;42.720;23.336;2023-05-02T01:09:09;7.37;;;5.30;;
5295;SDS011;2670;42.720;23.336;2023-05-02T01:11:56;6.53;;;5.07;;
5295;SDS011;2670;42.720;23.336;2023-05-02T01:14:28;5.47;;;4.43;;
5295;SDS011;2670;42.720;23.336;2023-05-02T01:16:58;6.87;;;5.17;;
5295;SDS011;2670;42.720;23.336;2023-05-02T01:19:33;6.50;;;4.60;;
5295;SDS011;2670;42.720;23.336;2023-05-02T01:22:02;5.73;;;5.17;;
5295;SDS011;2670;42.720;23.336;2023-05-02T01:24:34;5.07;;;4.57;;
5295;SDS011;2670;42.720;23.336;2023-05-02T01:27:10;5.63;;;4.73;;
5295;SDS011;2670;42.720;23.336;2023-05-02T01:29:45;7.07;;;4.93;;
5295;SDS011;2670;42.720;23.336;2023-05-02T01:32:16;15.30;;;5.90;;
5295;SDS011;2670;42.720;23.336;2023-05-02T01:34:45;8.93;;;5.87;;
5295;SDS011;2670;42.720;23.336;2023-05-02T01:37:13;8.23;;;5.43;;
5295;SDS011;2670;42.720;23.336;2023-05-02T01:39:42;7.83;;;5.80;;
5295;SDS011;2670;42.720;23.336;2023-05-02T01:42:11;11.97;;;6.37;;
5295;SDS011;2670;42.720;23.336;2023-05-02T01:44:39;7.40;;;5.70;;
5295;SDS011;2670;42.720;23.336;2023-05-02T01:47:08;10.80;;;6.20;;
5295;SDS011;2670;42.720;23.336;2023-05-02T01:49:35;7.00;;;5.53;;
5295;SDS011;2670;42.720;23.336;2023-05-02T01:52:04;7.17;;;5.80;;
5295;SDS011;2670;42.720;23.336;2023-05-02T01:54:35;7.60;;;5.30;;
5295;SDS011;2670;42.720;23.336;2023-05-02T01:57:04;10.50;;;6.10;;
5295;SDS011;2670;42.720;23.336;2023-05-02T01:59:32;10.93;;;6.30;;
5295;SDS011;2670;42.720;23.336;2023-05-02T02:02:00;7.20;;;5.90;;
5295;SDS011;2670;42.720;23.336;2023-05-02T02:04:29;8.10;;;6.50;;
5295;SDS011;2670;42.720;23.336;2023-05-02T02:07:00;8.57;;;6.10;;
5295;SDS011;2670;42.720;23.336;2023-05-02T02:09:29;7.37;;;5.73;;
5295;SDS011;2670;42.720;23.336;2023-05-02T02:11:56;6.17;;;5.47;;
5295;SDS011;2670;42.720;23.336;2023-05-02T02:14:31;12.97;;;6.27;;
5295;SDS011;2670;42.720;23.336;2023-05-02T02:17:00;6.60;;;5.70;;
5295;SDS011;2670;42.720;23.336;2023-05-02T02:19:32;8.50;;;5.37;;
5295;SDS011;2670;42.720;23.336;2023-05-02T02:22:00;8.57;;;6.00;;
5295;SDS011;2670;42.720;23.336;2023-05-02T02:24:30;8.37;;;6.13;;
5295;SDS011;2670;42.720;23.336;2023-05-02T02:27:00;8.43;;;6.20;;
5295;SDS011;2670;42.720;23.336;2023-05-02T02:29:27;7.53;;;6.00;;
5295;SDS011;2670;42.720;23.336;2023-05-02T02:31:54;7.63;;;6.17;;
5295;SDS011;2670;42.720;23.336;2023-05-02T02:34:20;9.73;;;6.30;;
5295;SDS011;2670;42.720;23.336;2023-05-02T02:36:50;8.03;;;6.30;;
5295;SDS011;2670;42.720;23.336;2023-05-02T02:39:24;7.83;;;6.10;;
5295;SDS011;2670;42.720;23.336;2023-05-02T02:42:02;12.50;;;6.63;;
5295;SDS011;2670;42.720;23.336;2023-05-02T02:44:38;9.00;;;6.40;;
5295;SDS011;2670;42.720;23.336;2023-05-02T02:47:13;11.07;;;6.90;;
5295;SDS011;2670;42.720;23.336;2023-05-02T02:49:47;6.50;;;5.70;;
5295;SDS011;2670;42.720;23.336;2023-05-02T02:52:23;9.07;;;6.53;;
5295;SDS011;2670;42.720;23.336;2023-05-02T02:54:58;8.70;;;5.87;;
5295;SDS011;2670;42.720;23.336;2023-05-02T02:57:32;7.57;;;5.67;;
5295;SDS011;2670;42.720;23.336;2023-05-02T03:00:07;9.53;;;6.50;;
5295;SDS011;2670;42.720;23.336;2023-05-02T03:02:38;9.80;;;6.13;;
5295;SDS011;2670;42.720;23.336;2023-05-02T03:05:08;12.63;;;6.53;;
5295;SDS011;2670;42.720;23.336;2023-05-02T03:07:37;6.93;;;5.40;;
5295;SDS011;2670;42.720;23.336;2023-05-02T03:10:04;8.20;;;6.17;;
5295;SDS011;2670;42.720;23.336;2023-05-02T03:12:32;10.03;;;6.77;;
5295;SDS011;2670;42.720;23.336;2023-05-02T03:15:02;11.03;;;7.13;;
5295;SDS011;2670;42.720;23.336;2023-05-02T03:17:39;8.17;;;5.73;;
5295;SDS011;2670;42.720;23.336;2023-05-02T03:20:06;8.10;;;6.33;;
5295;SDS011;2670;42.720;23.336;2023-05-02T03:22:33;7.13;;;6.10;;
5295;SDS011;2670;42.720;23.336;2023-05-02T03:25:01;7.40;;;5.67;;
5295;SDS011;2670;42.720;23.336;2023-05-02T03:27:28;9.87;;;6.30;;
5295;SDS011;2670;42.720;23.336;2023-05-02T03:29:56;6.23;;;5.20;;
5295;SDS011;2670;42.720;23.336;2023-05-02T03:32:22;8.50;;;6.40;;
5295;SDS011;2670;42.720;23.336;2023-05-02T03:34:49;8.93;;;6.17;;
5295;SDS011;2670;42.720;23.336;2023-05-02T03:37:16;6.73;;;5.50;;
5295;SDS011;2670;42.720;23.336;2023-05-02T03:39:43;8.20;;;6.43;;
5295;SDS011;2670;42.720;23.336;2023-05-02T03:42:11;6.97;;;5.90;;
5295;SDS011;2670;42.720;23.336;2023-05-02T03:44:38;6.87;;;6.00;;
5295;SDS011;2670;42.720;23.336;2023-05-02T03:47:04;7.93;;;5.73;;
5295;SDS011;2670;42.720;23.336;2023-05-02T03:49:32;7.43;;;6.10;;
5295;SDS011;2670;42.720;23.336;2023-05-02T03:52:00;9.13;;;6.30;;
5295;SDS011;2670;42.720;23.336;2023-05-02T03:54:27;7.60;;;5.70;;
5295;SDS011;2670;42.720;23.336;2023-05-02T03:56:57;8.63;;;6.67;;
5295;SDS011;2670;42.720;23.336;2023-05-02T03:59:25;9.17;;;6.17;;
5295;SDS011;2670;42.720;23.336;2023-05-02T04:01:52;11.50;;;6.93;;
5295;SDS011;2670;42.720;23.336;2023-05-02T04:04:19;12.13;;;7.30;;
5295;SDS011;2670;42.720;23.336;2023-05-02T04:06:46;9.40;;;6.60;;
5295;SDS011;2670;42.720;23.336;2023-05-02T04:09:12;11.50;;;6.87;;
5295;SDS011;2670;42.720;23.336;2023-05-02T04:11:39;12.33;;;7.53;;
5295;SDS011;2670;42.720;23.336;2023-05-02T04:14:06;9.90;;;6.87;;
5295;SDS011;2670;42.720;23.336;2023-05-02T04:16:34;8.20;;;6.50;;
5295;SDS011;2670;42.720;23.336;2023-05-02T04:19:01;8.97;;;6.50;;
5295;SDS011;2670;42.720;23.336;2023-05-02T04:21:28;8.37;;;6.83;;
5295;SDS011;2670;42.720;23.336;2023-05-02T04:23:55;9.13;;;6.50;;
5295;SDS011;2670;42.720;23.336;2023-05-02T04:26:22;18.13;;;6.60;;
5295;SDS011;2670;42.720;23.336;2023-05-02T04:28:49;9.87;;;6.47;;
5295;SDS011;2670;42.720;23.336;2023-05-02T04:31:15;8.47;;;6.17;;
5295;SDS011;2670;42.720;23.336;2023-05-02T04:33:43;11.87;;;6.13;;
5295;SDS011;2670;42.720;23.336;2023-05-02T04:36:12;7.00;;;5.67;;
5295;SDS011;2670;42.720;23.336;2023-05-02T04:38:40;5.90;;;5.20;;
5295;SDS011;2670;42.720;23.336;2023-05-02T04:41:07;11.13;;;5.10;;
5295;SDS011;2670;42.720;23.336;2023-05-02T04:43:33;8.20;;;5.40;;
5295;SDS011;2670;42.720;23.336;2023-05-02T04:46:00;7.50;;;5.40;;
5295;SDS011;2670;42.720;23.336;2023-05-02T04:48:27;7.73;;;5.43;;
5295;SDS011;2670;42.720;23.336;2023-05-02T04:50:55;8.30;;;5.50;;
5295;SDS011;2670;42.720;23.336;2023-05-02T04:53:22;14.33;;;6.20;;
5295;SDS011;2670;42.720;23.336;2023-05-02T04:55:49;7.47;;;5.30;;
5295;SDS011;2670;42.720;23.336;2023-05-02T04:58:16;5.90;;;5.30;;
5295;SDS011;2670;42.720;23.336;2023-05-02T05:00:43;6.57;;;4.93;;
5295;SDS011;2670;42.720;23.336;2023-05-02T05:03:09;6.90;;;5.20;;
5295;SDS011;2670;42.720;23.336;2023-05-02T05:05:36;7.20;;;5.27;;
5295;SDS011;2670;42.720;23.336;2023-05-02T05:08:04;7.93;;;5.90;;
5295;SDS011;2670;42.720;23.336;2023-05-02T05:10:31;10.13;;;5.27;;
5295;SDS011;2670;42.720;23.336;2023-05-02T05:12:58;6.47;;;4.70;;
5295;SDS011;2670;42.720;23.336;2023-05-02T05:15:25;7.40;;;5.00;;
5295;SDS011;2670;42.720;23.336;2023-05-02T05:17:52;5.87;;;4.20;;
5295;SDS011;2670;42.720;23.336;2023-05-02T05:20:18;8.00;;;5.33;;
5295;SDS011;2670;42.720;23.336;2023-05-02T05:22:45;15.00;;;5.43;;
5295;SDS011;2670;42.720;23.336;2023-05-02T05:25:13;7.17;;;4.97;;
5295;SDS011;2670;42.720;23.336;2023-05-02T05:27:40;6.33;;;3.77;;
5295;SDS011;2670;42.720;23.336;2023-05-02T05:30:07;16.03;;;5.20;;
5295;SDS011;2670;42.720;23.336;2023-05-02T05:32:34;9.77;;;4.80;;
5295;SDS011;2670;42.720;23.336;2023-05-02T05:35:01;9.40;;;5.23;;
5295;SDS011;2670;42.720;23.336;2023-05-02T05:37:28;7.13;;;4.87;;
5295;SDS011;2670;42.720;23.336;2023-05-02T05:39:55;5.97;;;4.77;;
5295;SDS011;2670;42.720;23.336;2023-05-02T05:42:23;7.83;;;4.27;;
5295;SDS011;2670;42.720;23.336;2023-05-02T05:44:50;7.17;;;4.53;;
5295;SDS011;2670;42.720;23.336;2023-05-02T05:47:19;4.73;;;4.23;;
5295;SDS011;2670;42.720;23.336;2023-05-02T05:49:47;7.17;;;4.90;;
5295;SDS011;2670;42.720;23.336;2023-05-02T05:52:17;4.33;;;3.80;;
5295;SDS011;2670;42.720;23.336;2023-05-02T05:54:44;15.13;;;4.67;;
5295;SDS011;2670;42.720;23.336;2023-05-02T05:57:11;6.73;;;3.90;;
5295;SDS011;2670;42.720;23.336;2023-05-02T05:59:39;5.30;;;4.30;;
5295;SDS011;2670;42.720;23.336;2023-05-02T06:02:05;10.80;;;4.77;;
5295;SDS011;2670;42.720;23.336;2023-05-02T06:04:32;7.93;;;4.20;;
5295;SDS011;2670;42.720;23.336;2023-05-02T06:06:59;6.90;;;4.90;;
5295;SDS011;2670;42.720;23.336;2023-05-02T06:09:25;5.90;;;4.20;;
5295;SDS011;2670;42.720;23.336;2023-05-02T06:11:52;15.03;;;4.10;;
5295;SDS011;2670;42.720;23.336;2023-05-02T06:14:19;7.90;;;3.90;;
5295;SDS011;2670;42.720;23.336;2023-05-02T06:16:47;7.97;;;4.70;;
5295;SDS011;2670;42.720;23.336;2023-05-02T06:19:14;5.20;;;3.57;;
5295;SDS011;2670;42.720;23.336;2023-05-02T06:21:40;5.90;;;3.70;;
5295;SDS011;2670;42.720;23.336;2023-05-02T06:24:07;6.23;;;3.60;;
5295;SDS011;2670;42.720;23.336;2023-05-02T06:26:34;6.27;;;4.00;;
5295;SDS011;2670;42.720;23.336;2023-05-02T06:29:01;10.33;;;4.10;;
5295;SDS011;2670;42.720;23.336;2023-05-02T06:31:28;5.53;;;3.40;;
5295;SDS011;2670;42.720;23.336;2023-05-02T06:33:56;5.73;;;3.67;;
5295;SDS011;2670;42.720;23.336;2023-05-02T06:36:22;3.40;;;2.80;;
5295;SDS011;2670;42.720;23.336;2023-05-02T06:38:50;17.43;;;3.60;;
5295;SDS011;2670;42.720;23.336;2023-05-02T06:41:16;4.60;;;3.23;;
5295;SDS011;2670;42.720;23.336;2023-05-02T06:43:44;5.37;;;3.70;;
5295;SDS011;2670;42.720;23.336;2023-05-02T06:46:11;4.97;;;3.30;;
5295;SDS011;2670;42.720;23.336;2023-05-02T06:48:38;4.93;;;3.57;;
5295;SDS011;2670;42.720;23.336;2023-05-02T06:51:06;6.13;;;3.30;;
5295;SDS011;2670;42.720;23.336;2023-05-02T06:53:32;3.83;;;2.70;;
5295;SDS011;2670;42.720;23.336;2023-05-02T06:55:59;6.97;;;2.97;;
5295;SDS011;2670;42.720;23.336;2023-05-02T06:58:26;3.37;;;2.87;;
5295;SDS011;2670;42.720;23.336;2023-05-02T07:00:53;6.17;;;3.87;;
5295;SDS011;2670;42.720;23.336;2023-05-02T07:03:19;3.93;;;3.33;;
5295;SDS011;2670;42.720;23.336;2023-05-02T07:05:46;10.83;;;3.37;;
5295;SDS011;2670;42.720;23.336;2023-05-02T07:08:14;6.00;;;2.50;;
5295;SDS011;2670;42.720;23.336;2023-05-02T07:10:42;4.47;;;3.20;;
5295;SDS011;2670;42.720;23.336;2023-05-02T07:13:09;5.33;;;3.13;;
5295;SDS011;2670;42.720;23.336;2023-05-02T07:15:36;5.77;;;3.27;;
5295;SDS011;2670;42.720;23.336;2023-05-02T07:18:02;5.93;;;3.60;;
5295;SDS011;2670;42.720;23.336;2023-05-02T07:20:30;6.70;;;4.43;;
5295;SDS011;2670;42.720;23.336;2023-05-02T07:22:57;7.17;;;3.10;;
5295;SDS011;2670;42.720;23.336;2023-05-02T07:25:25;7.20;;;3.23;;
5295;SDS011;2670;42.720;23.336;2023-05-02T07:27:52;4.77;;;2.90;;
5295;SDS011;2670;42.720;23.336;2023-05-02T07:30:18;5.50;;;3.07;;
5295;SDS011;2670;42.720;23.336;2023-05-02T07:32:45;4.90;;;2.90;;
5295;SDS011;2670;42.720;23.336;2023-05-02T07:35:12;9.70;;;3.27;;
5295;SDS011;2670;42.720;23.336;2023-05-02T07:37:38;7.10;;;2.97;;
5295;SDS011;2670;42.720;23.336;2023-05-02T07:40:07;4.33;;;2.77;;
5295;SDS011;2670;42.720;23.336;2023-05-02T07:42:36;6.13;;;3.13;;
5295;SDS011;2670;42.720;23.336;2023-05-02T07:45:05;3.90;;;2.70;;
5295;SDS011;2670;42.720;23.336;2023-05-02T07:47:33;7.07;;;3.23;;
5295;SDS011;2670;42.720;23.336;2023-05-02T07:49:59;4.97;;;3.03;;
5295;SDS011;2670;42.720;23.336;2023-05-02T07:52:28;6.33;;;2.47;;
5295;SDS011;2670;42.720;23.336;2023-05-02T07:54:54;7.80;;;2.50;;
5295;SDS011;2670;42.720;23.336;2023-05-02T07:57:21;6.57;;;2.57;;
5295;SDS011;2670;42.720;23.336;2023-05-02T07:59:50;3.70;;;2.50;;
5295;SDS011;2670;42.720;23.336;2023-05-02T08:02:17;9.13;;;3.00;;
5295;SDS011;2670;42.720;23.336;2023-05-02T08:04:45;4.17;;;2.93;;
5295;SDS011;2670;42.720;23.336;2023-05-02T08:07:13;6.03;;;2.90;;
5295;SDS011;2670;42.720;23.336;2023-05-02T08:09:42;9.80;;;2.83;;
5295;SDS011;2670;42.720;23.336;2023-05-02T08:12:12;5.30;;;2.63;;
5295;SDS011;2670;42.720;23.336;2023-05-02T08:14:39;6.43;;;3.07;;
5295;SDS011;2670;42.720;23.336;2023-05-02T08:17:07;3.07;;;2.63;;
5295;SDS011;2670;42.720;23.336;2023-05-02T08:19:33;4.03;;;3.20;;
5295;SDS011;2670;42.720;23.336;2023-05-02T08:22:00;3.70;;;2.87;;
5295;SDS011;2670;42.720;23.336;2023-05-02T08:24:27;8.50;;;4.73;;
5295;SDS011;2670;42.720;23.336;2023-05-02T08:26:55;2.70;;;2.43;;
5295;SDS011;2670;42.720;23.336;2023-05-02T08:29:22;4.37;;;2.63;;
5295;SDS011;2670;42.720;23.336;2023-05-02T08:31:49;5.63;;;2.90;;
5295;SDS011;2670;42.720;23.336;2023-05-02T08:34:17;5.03;;;2.47;;
5295;SDS011;2670;42.720;23.336;2023-05-02T08:36:43;6.33;;;2.43;;
5295;SDS011;2670;42.720;23.336;2023-05-02T08:39:10;4.80;;;2.60;;
5295;SDS011;2670;42.720;23.336;2023-05-02T08:41:37;4.70;;;2.80;;
5295;SDS011;2670;42.720;23.336;2023-05-02T08:44:04;3.67;;;2.60;;
5295;SDS011;2670;42.720;23.336;2023-05-02T08:46:31;4.43;;;2.53;;
5295;SDS011;2670;42.720;23.336;2023-05-02T08:49:01;7.63;;;2.70;;
5295;SDS011;2670;42.720;23.336;2023-05-02T08:51:30;3.33;;;2.40;;
5295;SDS011;2670;42.720;23.336;2023-05-02T08:53:57;4.03;;;2.40;;
5295;SDS011;2670;42.720;23.336;2023-05-02T08:56:27;4.10;;;2.70;;
5295;SDS011;2670;42.720;23.336;2023-05-02T08:58:54;8.63;;;3.77;;
5295;SDS011;2670;42.720;23.336;2023-05-02T09:01:22;4.30;;;2.50;;
5295;SDS011;2670;42.720;23.336;2023-05-02T09:03:52;6.63;;;2.40;;
5295;SDS011;2670;42.720;23.336;2023-05-02T09:06:21;5.33;;;2.30;;
5295;SDS011;2670;42.720;23.336;2023-05-02T09:08:50;7.47;;;2.60;;
5295;SDS011;2670;42.720;23.336;2023-05-02T09:11:17;4.70;;;2.73;;
5295;SDS011;2670;42.720;23.336;2023-05-02T09:13:45;8.47;;;3.17;;
5295;SDS011;2670;42.720;23.336;2023-05-02T09:16:13;3.30;;;2.67;;
5295;SDS011;2670;42.720;23.336;2023-05-02T09:18:41;6.40;;;2.60;;
5295;SDS011;2670;42.720;23.336;2023-05-02T09:21:10;4.10;;;2.37;;
5295;SDS011;2670;42.720;23.336;2023-05-02T09:23:39;3.70;;;2.50;;
5295;SDS011;2670;42.720;23.336;2023-05-02T09:26:14;5.60;;;2.70;;
5295;SDS011;2670;42.720;23.336;2023-05-02T09:28:46;5.67;;;2.50;;
5295;SDS011;2670;42.720;23.336;2023-05-02T09:31:14;3.37;;;2.27;;
5295;SDS011;2670;42.720;23.336;2023-05-02T09:33:41;4.23;;;2.67;;
5295;SDS011;2670;42.720;23.336;2023-05-02T09:36:10;2.90;;;2.37;;
5295;SDS011;2670;42.720;23.336;2023-05-02T09:38:38;4.37;;;2.40;;
5295;SDS011;2670;42.720;23.336;2023-05-02T09:41:05;8.20;;;2.40;;
5295;SDS011;2670;42.720;23.336;2023-05-02T09:43:33;2.40;;;1.80;;
5295;SDS011;2670;42.720;23.336;2023-05-02T09:46:01;8.90;;;2.70;;
5295;SDS011;2670;42.720;23.336;2023-05-02T09:48:29;2.83;;;2.10;;
5295;SDS011;2670;42.720;23.336;2023-05-02T09:50:57;3.43;;;2.23;;
5295;SDS011;2670;42.720;23.336;2023-05-02T09:53:26;7.37;;;2.60;;
5295;SDS011;2670;42.720;23.336;2023-05-02T09:56:00;5.87;;;2.23;;
5295;SDS011;2670;42.720;23.336;2023-05-02T09:58:29;2.80;;;2.20;;
5295;SDS011;2670;42.720;23.336;2023-05-02T10:00:58;5.20;;;2.23;;
5295;SDS011;2670;42.720;23.336;2023-05-02T10:03:25;2.97;;;2.67;;
5295;SDS011;2670;42.720;23.336;2023-05-02T10:05:54;3.00;;;2.03;;
5295;SDS011;2670;42.720;23.336;2023-05-02T10:08:24;10.70;;;2.20;;
5295;SDS011;2670;42.720;23.336;2023-05-02T10:10:53;4.23;;;2.43;;
5295;SDS011;2670;42.720;23.336;2023-05-02T10:13:20;8.00;;;2.53;;
5295;SDS011;2670;42.720;23.336;2023-05-02T10:15:53;3.60;;;2.50;;
5295;SDS011;2670;42.720;23.336;2023-05-02T10:18:27;3.10;;;1.87;;
5295;SDS011;2670;42.720;23.336;2023-05-02T10:20:59;4.40;;;2.27;;
5295;SDS011;2670;42.720;23.336;2023-05-02T10:23:30;4.97;;;2.20;;
5295;SDS011;2670;42.720;23.336;2023-05-02T10:25:59;6.90;;;2.37;;
5295;SDS011;2670;42.720;23.336;2023-05-02T10:28:26;4.50;;;2.40;;
5295;SDS011;2670;42.720;23.336;2023-05-02T10:30:53;8.30;;;2.13;;
5295;SDS011;2670;42.720;23.336;2023-05-02T10:33:22;3.13;;;2.20;;
5295;SDS011;2670;42.720;23.336;2023-05-02T10:35:49;2.10;;;1.90;;
5295;SDS011;2670;42.720;23.336;2023-05-02T10:38:16;4.70;;;2.27;;
5295;SDS011;2670;42.720;23.336;2023-05-02T10:40:49;6.53;;;2.20;;
5295;SDS011;2670;42.720;23.336;2023-05-02T10:43:20;3.03;;;2.30;;
5295;SDS011;2670;42.720;23.336;2023-05-02T10:45:49;4.73;;;2.17;;
5295;SDS011;2670;42.720;23.336;2023-05-02T10:48:17;6.30;;;2.20;;
5295;SDS011;2670;42.720;23.336;2023-05-02T10:50:48;7.73;;;2.50;;
5295;SDS011;2670;42.720;23.336;2023-05-02T10:53:22;5.10;;;2.47;;
5295;SDS011;2670;42.720;23.336;2023-05-02T10:56:12;3.33;;;2.47;;
5295;SDS011;2670;42.720;23.336;2023-05-02T10:58:45;3.27;;;2.20;;
5295;SDS011;2670;42.720;23.336;2023-05-02T11:04:09;5.13;;;2.80;;
5295;SDS011;2670;42.720;23.336;2023-05-02T11:09:42;7.03;;;2.57;;
5295;SDS011;2670;42.720;23.336;2023-05-02T11:12:08;2.93;;;2.27;;
5295;SDS011;2670;42.720;23.336;2023-05-02T11:14:42;6.03;;;2.50;;
5295;SDS011;2670;42.720;23.336;2023-05-02T11:17:12;2.57;;;2.37;;
5295;SDS011;2670;42.720;23.336;2023-05-02T11:22:54;5.27;;;2.73;;
5295;SDS011;2670;42.720;23.336;2023-05-02T11:25:34;4.83;;;2.77;;
5295;SDS011;2670;42.720;23.336;2023-05-02T11:28:05;5.00;;;3.00;;
5295;SDS011;2670;42.720;23.336;2023-05-02T11:30:37;5.80;;;2.40;;
5295;SDS011;2670;42.720;23.336;2023-05-02T11:33:11;3.37;;;2.47;;
5295;SDS011;2670;42.720;23.336;2023-05-02T11:35:44;5.33;;;3.30;;
5295;SDS011;2670;42.720;23.336;2023-05-02T11:38:14;5.00;;;2.53;;
5295;SDS011;2670;42.720;23.336;2023-05-02T11:40:48;5.10;;;2.57;;
5295;SDS011;2670;42.720;23.336;2023-05-02T11:43:22;6.23;;;2.30;;
5295;SDS011;2670;42.720;23.336;2023-05-02T11:45:50;3.83;;;2.57;;
5295;SDS011;2670;42.720;23.336;2023-05-02T11:48:18;5.20;;;2.23;;
5295;SDS011;2670;42.720;23.336;2023-05-02T11:50:46;4.37;;;2.87;;
5295;SDS011;2670;42.720;23.336;2023-05-02T11:53:16;3.07;;;2.30;;
5295;SDS011;2670;42.720;23.336;2023-05-02T11:55:47;3.53;;;2.30;;
5295;SDS011;2670;42.720;23.336;2023-05-02T11:58:16;5.17;;;2.77;;
5295;SDS011;2670;42.720;23.336;2023-05-02T12:00:44;5.50;;;2.30;;
5295;SDS011;2670;42.720;23.336;2023-05-02T12:03:18;4.20;;;2.10;;
5295;SDS011;2670;42.720;23.336;2023-05-02T12:05:49;3.40;;;2.30;;
5295;SDS011;2670;42.720;23.336;2023-05-02T12:08:18;5.93;;;2.30;;
5295;SDS011;2670;42.720;23.336;2023-05-02T12:10:49;2.87;;;2.47;;
5295;SDS011;2670;42.720;23.336;2023-05-02T12:13:20;5.60;;;2.80;;
5295;SDS011;2670;42.720;23.336;2023-05-02T12:15:49;10.90;;;2.57;;
5295;SDS011;2670;42.720;23.336;2023-05-02T12:18:17;3.10;;;2.30;;
5295;SDS011;2670;42.720;23.336;2023-05-02T12:20:47;4.60;;;2.87;;
5295;SDS011;2670;42.720;23.336;2023-05-02T12:23:15;5.33;;;2.13;;
5295;SDS011;2670;42.720;23.336;2023-05-02T12:25:43;3.27;;;2.23;;
5295;SDS011;2670;42.720;23.336;2023-05-02T12:28:10;4.63;;;2.67;;
5295;SDS011;2670;42.720;23.336;2023-05-02T12:30:37;2.70;;;2.10;;
5295;SDS011;2670;42.720;23.336;2023-05-02T12:33:06;4.20;;;2.50;;
5295;SDS011;2670;42.720;23.336;2023-05-02T12:35:33;3.17;;;1.80;;
5295;SDS011;2670;42.720;23.336;2023-05-02T12:38:08;3.87;;;2.40;;
5295;SDS011;2670;42.720;23.336;2023-05-02T12:40:36;6.30;;;2.40;;
5295;SDS011;2670;42.720;23.336;2023-05-02T12:43:05;4.13;;;2.30;;
5295;SDS011;2670;42.720;23.336;2023-05-02T12:45:34;3.10;;;2.30;;
5295;SDS011;2670;42.720;23.336;2023-05-02T12:48:16;3.10;;;2.20;;
5295;SDS011;2670;42.720;23.336;2023-05-02T12:50:44;4.87;;;2.33;;
5295;SDS011;2670;42.720;23.336;2023-05-02T12:53:11;3.40;;;2.23;;
5295;SDS011;2670;42.720;23.336;2023-05-02T12:55:38;14.10;;;2.87;;
5295;SDS011;2670;42.720;23.336;2023-05-02T12:58:07;6.67;;;2.00;;
5295;SDS011;2670;42.720;23.336;2023-05-02T13:00:35;4.80;;;2.47;;
5295;SDS011;2670;42.720;23.336;2023-05-02T13:03:04;8.97;;;2.20;;
5295;SDS011;2670;42.720;23.336;2023-05-02T13:05:31;4.63;;;2.00;;
5295;SDS011;2670;42.720;23.336;2023-05-02T13:07:58;3.50;;;2.00;;
5295;SDS011;2670;42.720;23.336;2023-05-02T13:10:26;5.50;;;2.23;;
5295;SDS011;2670;42.720;23.336;2023-05-02T13:12:54;5.23;;;2.47;;
5295;SDS011;2670;42.720;23.336;2023-05-02T13:15:22;4.10;;;2.20;;
5295;SDS011;2670;42.720;23.336;2023-05-02T13:17:49;2.50;;;1.90;;
5295;SDS011;2670;42.720;23.336;2023-05-02T13:20:16;5.40;;;2.03;;
5295;SDS011;2670;42.720;23.336;2023-05-02T13:22:43;5.77;;;2.33;;
5295;SDS011;2670;42.720;23.336;2023-05-02T13:25:10;2.73;;;2.10;;
5295;SDS011;2670;42.720;23.336;2023-05-02T13:27:37;7.20;;;2.20;;
5295;SDS011;2670;42.720;23.336;2023-05-02T13:30:05;2.53;;;1.80;;
5295;SDS011;2670;42.720;23.336;2023-05-02T13:32:34;5.70;;;2.10;;
5295;SDS011;2670;42.720;23.336;2023-05-02T13:35:01;5.40;;;1.73;;
5295;SDS011;2670;42.720;23.336;2023-05-02T13:37:28;7.20;;;1.90;;
5295;SDS011;2670;42.720;23.336;2023-05-02T13:39:55;3.47;;;2.23;;
5295;SDS011;2670;42.720;23.336;2023-05-02T13:42:22;6.77;;;2.43;;
5295;SDS011;2670;42.720;23.336;2023-05-02T13:44:48;2.77;;;1.97;;
5295;SDS011;2670;42.720;23.336;2023-05-02T13:47:15;4.10;;;2.20;;
5295;SDS011;2670;42.720;23.336;2023-05-02T13:49:43;3.10;;;2.17;;
5295;SDS011;2670;42.720;23.336;2023-05-02T13:52:12;2.87;;;1.97;;
5295;SDS011;2670;42.720;23.336;2023-05-02T13:54:39;2.13;;;1.93;;
5295;SDS011;2670;42.720;23.336;2023-05-02T13:57:05;3.83;;;2.20;;
5295;SDS011;2670;42.720;23.336;2023-05-02T13:59:32;4.30;;;2.10;;
5295;SDS011;2670;42.720;23.336;2023-05-02T14:01:59;2.67;;;1.63;;
5295;SDS011;2670;42.720;23.336;2023-05-02T14:04:25;5.40;;;2.03;;
5295;SDS011;2670;42.720;23.336;2023-05-02T14:06:54;5.60;;;2.10;;
5295;SDS011;2670;42.720;23.336;2023-05-02T14:09:20;2.53;;;2.10;;
5295;SDS011;2670;42.720;23.336;2023-05-02T14:11:47;4.73;;;1.83;;
5295;SDS011;2670;42.720;23.336;2023-05-02T14:14:14;2.93;;;1.90;;
5295;SDS011;2670;42.720;23.336;2023-05-02T14:16:40;3.23;;;2.20;;
5295;SDS011;2670;42.720;23.336;2023-05-02T14:19:07;2.30;;;1.87;;
5295;SDS011;2670;42.720;23.336;2023-05-02T14:21:34;2.77;;;2.37;;
5295;SDS011;2670;42.720;23.336;2023-05-02T14:24:04;2.80;;;1.90;;
5295;SDS011;2670;42.720;23.336;2023-05-02T14:26:31;4.93;;;2.20;;
5295;SDS011;2670;42.720;23.336;2023-05-02T14:28:58;3.17;;;2.17;;
5295;SDS011;2670;42.720;23.336;2023-05-02T14:31:25;2.17;;;1.83;;
5295;SDS011;2670;42.720;23.336;2023-05-02T14:33:52;3.33;;;2.00;;
5295;SDS011;2670;42.720;23.336;2023-05-02T14:36:19;4.20;;;1.93;;
5295;SDS011;2670;42.720;23.336;2023-05-02T14:38:45;8.33;;;1.83;;
5295;SDS011;2670;42.720;23.336;2023-05-02T14:41:13;2.07;;;1.70;;
5295;SDS011;2670;42.720;23.336;2023-05-02T14:43:40;6.17;;;2.00;;
5295;SDS011;2670;42.720;23.336;2023-05-02T14:46:07;10.50;;;1.97;;
5295;SDS011;2670;42.720;23.336;2023-05-02T14:48:33;13.70;;;6.40;;
5295;SDS011;2670;42.720;23.336;2023-05-02T14:51:03;14.30;;;7.97;;
5295;SDS011;2670;42.720;23.336;2023-05-02T14:53:31;11.23;;;4.40;;
5295;SDS011;2670;42.720;23.336;2023-05-02T14:55:58;7.70;;;3.40;;
5295;SDS011;2670;42.720;23.336;2023-05-02T14:58:26;3.33;;;2.13;;
5295;SDS011;2670;42.720;23.336;2023-05-02T15:00:52;3.73;;;2.10;;
5295;SDS011;2670;42.720;23.336;2023-05-02T15:03:19;3.57;;;2.10;;
5295;SDS011;2670;42.720;23.336;2023-05-02T15:05:46;3.57;;;1.83;;
5295;SDS011;2670;42.720;23.336;2023-05-02T15:08:13;3.00;;;2.10;;
5295;SDS011;2670;42.720;23.336;2023-05-02T15:10:40;2.90;;;2.10;;
5295;SDS011;2670;42.720;23.336;2023-05-02T15:13:06;3.50;;;2.40;;
5295;SDS011;2670;42.720;23.336;2023-05-02T15:15:35;3.47;;;1.80;;
5295;SDS011;2670;42.720;23.336;2023-05-02T15:18:02;3.07;;;1.97;;